Time;durP1;ratioP1;P1;durP2;ratioP2;P2;SDS_P1;SDS_P2;PMS_P1;PMS_P2;Temp;Humidity;BMP_temperature;BMP_pressure;BME280_temperature;BME280_humidity;BME280_pressure;Samples;Min_cycle;Max_cycle;Signal;HPM_P1;HPM_P2
2023/10/06 00:01:42;;;;;;;10.25;3.25;;;14.00;99.90;;;;;;5074684;28;20076;-75
2023/10/06 00:04:12;;;;;;;15.43;3.53;;;14.00;99.90;;;;;;5074446;28;20045;-75
2023/10/06 00:06:38;;;;;;;10.05;3.17;;;14.00;99.90;;;;;;5074807;28;20080;-75
2023/10/06 00:09:06;;;;;;;13.23;3.78;;;13.90;99.90;;;;;;5074521;28;20461;-74
2023/10/06 00:11:32;;;;;;;12.18;3.97;;;14.00;99.90;;;;;;5074482;28;20083;-74
2023/10/06 00:14:07;;;;;;;7.72;3.75;;;13.90;99.90;;;;;;5074585;28;20032;-74
2023/10/06 00:16:41;;;;;;;9.30;3.42;;;14.00;99.90;;;;;;5074217;28;20032;-74
2023/10/06 00:19:31;;;;;;;11.70;3.70;;;14.00;99.90;;;;;;5057617;28;20119;-74
2023/10/06 00:22:17;;;;;;;10.10;3.50;;;14.00;99.90;;;;;;5074284;28;20032;-74
2023/10/06 00:24:50;;;;;;;12.98;3.85;;;14.00;99.90;;;;;;5074268;28;20123;-74
2023/10/06 00:27:23;;;;;;;8.60;3.47;;;14.00;99.90;;;;;;5074784;28;20143;-75
2023/10/06 00:29:54;;;;;;;11.43;3.40;;;14.00;99.90;;;;;;5074376;28;20044;-75
2023/10/06 00:32:24;;;;;;;10.10;4.03;;;14.00;99.90;;;;;;5074155;28;20509;-75
2023/10/06 00:34:52;;;;;;;15.10;4.45;;;14.00;99.90;;;;;;5074035;28;20091;-74
2023/10/06 00:37:22;;;;;;;14.02;4.30;;;14.00;99.90;;;;;;5074251;28;20046;-74
2023/10/06 00:39:50;;;;;;;11.18;4.60;;;14.00;99.90;;;;;;5073909;28;20127;-74
2023/10/06 00:42:17;;;;;;;10.70;4.93;;;14.00;99.90;;;;;;5073917;28;20048;-74
2023/10/06 00:44:46;;;;;;;11.18;4.15;;;14.00;99.90;;;;;;5073912;28;20519;-74
2023/10/06 00:47:13;;;;;;;13.65;4.47;;;14.00;99.90;;;;;;5073797;28;20083;-74
2023/10/06 00:49:39;;;;;;;12.75;4.88;;;14.00;99.90;;;;;;5073730;28;20033;-74
2023/10/06 00:52:07;;;;;;;12.82;5.45;;;14.00;99.90;;;;;;5056275;28;20041;-75
2023/10/06 00:54:33;;;;;;;12.48;5.57;;;14.00;99.90;;;;;;5073576;28;20032;-75
2023/10/06 00:57:08;;;;;;;13.73;4.85;;;14.00;99.90;;;;;;5073585;28;20083;-74
2023/10/06 00:59:37;;;;;;;14.95;5.35;;;14.00;99.90;;;;;;5056890;28;20040;-75
2023/10/06 01:02:10;;;;;;;11.10;4.88;;;14.00;99.90;;;;;;5056825;28;20512;-75
2023/10/06 01:04:45;;;;;;;13.50;4.80;;;14.00;99.90;;;;;;5073607;28;20040;-75
2023/10/06 01:07:16;;;;;;;13.68;5.53;;;14.00;99.90;;;;;;5073344;28;20394;-75
2023/10/06 01:10:07;;;;;;;16.92;5.28;;;14.00;99.90;;;;;;5073412;28;20052;-75
2023/10/06 01:12:32;;;;;;;12.05;5.32;;;14.00;99.90;;;;;;5073634;28;20562;-75
2023/10/06 01:15:17;;;;;;;14.05;5.55;;;14.00;99.90;;;;;;5073185;28;20041;-75
2023/10/06 01:17:47;;;;;;;13.68;5.50;;;14.10;99.90;;;;;;5073128;28;20120;-75
2023/10/06 01:20:29;;;;;;;12.07;5.53;;;14.10;99.90;;;;;;5073176;28;20132;-75
2023/10/06 01:22:56;;;;;;;13.63;5.55;;;14.00;99.90;;;;;;5073148;28;20040;-75
2023/10/06 01:25:24;;;;;;;9.68;5.28;;;14.00;99.90;;;;;;5073033;28;20115;-74
2023/10/06 01:27:50;;;;;;;11.70;5.20;;;14.00;99.90;;;;;;5056386;28;20104;-74
2023/10/06 01:30:19;;;;;;;12.27;5.32;;;14.00;99.90;;;;;;5056279;28;20028;-74
2023/10/06 01:32:50;;;;;;;13.32;5.20;;;14.00;99.90;;;;;;5073129;28;20093;-75
2023/10/06 01:35:26;;;;;;;16.13;6.22;;;14.00;99.90;;;;;;5056376;28;20051;-74
2023/10/06 01:38:00;;;;;;;15.45;5.32;;;14.00;99.90;;;;;;5072875;28;20044;-74
2023/10/06 01:42:54;;;;;;;15.00;6.43;;;14.00;99.90;;;;;;5072970;28;20512;-74
2023/10/06 01:45:23;;;;;;;14.25;5.85;;;14.00;99.90;;;;;;5072517;28;20041;-74
2023/10/06 01:47:56;;;;;;;12.43;5.97;;;14.00;99.90;;;;;;5072574;28;20505;-74
2023/10/06 01:50:28;;;;;;;12.73;5.68;;;14.00;99.90;;;;;;5072502;28;20486;-74
2023/10/06 01:52:58;;;;;;;17.50;6.47;;;14.00;99.90;;;;;;5072807;28;20082;-75
2023/10/06 01:55:24;;;;;;;13.77;6.07;;;13.90;99.90;;;;;;5057071;28;20033;-75
2023/10/06 01:57:54;;;;;;;15.02;6.43;;;13.90;99.90;;;;;;5072358;28;20555;-75
2023/10/06 02:00:26;;;;;;;14.45;5.88;;;13.90;99.90;;;;;;5055684;28;20050;-74
2023/10/06 02:02:53;;;;;;;13.35;6.20;;;13.90;99.90;;;;;;5072381;28;20052;-74
2023/10/06 02:05:20;;;;;;;13.02;6.10;;;13.90;99.90;;;;;;5072279;28;20045;-74
2023/10/06 02:07:46;;;;;;;16.15;6.15;;;13.90;99.90;;;;;;5072210;28;20036;-74
2023/10/06 02:10:15;;;;;;;16.63;6.25;;;14.00;99.90;;;;;;5055477;28;20033;-74
2023/10/06 02:12:45;;;;;;;12.25;6.25;;;13.90;99.90;;;;;;5072187;28;20036;-74
2023/10/06 02:15:11;;;;;;;14.85;6.32;;;13.90;99.90;;;;;;5055658;28;20040;-74
2023/10/06 02:17:40;;;;;;;13.38;6.20;;;13.90;99.90;;;;;;5071925;28;20394;-75
2023/10/06 02:20:49;;;;;;;16.33;6.40;;;14.00;99.90;;;;;;5055383;28;20040;-75
2023/10/06 02:23:00;;;;;;;12.93;5.60;;;13.90;99.90;;;;;;5069638;28;20052;-75
2023/10/06 02:25:26;;;;;;;11.85;6.15;;;14.00;99.90;;;;;;5071858;28;20044;-75
2023/10/06 02:27:52;;;;;;;14.13;6.32;;;13.90;99.90;;;;;;5072192;28;20056;-75
2023/10/06 02:30:25;;;;;;;20.00;6.80;;;14.00;99.90;;;;;;5055547;28;20070;-74
2023/10/06 02:32:54;;;;;;;14.85;6.43;;;14.00;99.90;;;;;;5072188;28;20036;-74
2023/10/06 02:35:19;;;;;;;14.93;5.97;;;14.00;99.90;;;;;;5071785;28;20131;-74
2023/10/06 02:37:46;;;;;;;14.23;6.35;;;14.00;99.90;;;;;;5071887;28;20158;-75
2023/10/06 02:40:12;;;;;;;15.13;6.20;;;14.00;99.90;;;;;;5071817;28;20037;-74
2023/10/06 02:42:48;;;;;;;10.90;5.85;;;14.00;99.90;;;;;;5071816;28;20493;-74
2023/10/06 02:45:20;;;;;;;15.68;6.38;;;14.00;99.90;;;;;;5055184;28;20539;-74
2023/10/06 02:47:45;;;;;;;15.98;6.60;;;14.00;99.90;;;;;;5072043;28;20067;-74
2023/10/06 02:50:19;;;;;;;14.48;6.65;;;14.00;99.90;;;;;;5071741;28;20494;-74
2023/10/06 02:52:46;;;;;;;18.90;6.95;;;14.00;99.90;;;;;;5071742;28;20040;-75
2023/10/06 02:55:19;;;;;;;13.75;6.75;;;14.00;99.90;;;;;;5071855;28;20138;-75
2023/10/06 02:57:52;;;;;;;12.77;6.82;;;13.90;99.90;;;;;;5071732;28;20048;-75
2023/10/06 03:02:43;;;;;;;13.75;7.32;;;14.00;99.90;;;;;;5071894;28;20059;-74
2023/10/06 03:05:12;;;;;;;13.63;7.05;;;14.00;99.90;;;;;;5071461;28;20041;-74
2023/10/06 03:07:38;;;;;;;16.23;7.03;;;13.90;99.90;;;;;;5071533;28;20033;-75
2023/10/06 03:10:08;;;;;;;14.85;7.50;;;13.90;99.90;;;;;;5071554;28;20033;-74
2023/10/06 03:12:39;;;;;;;16.65;7.68;;;13.90;99.90;;;;;;5071854;28;20109;-74
2023/10/06 03:15:35;;;;;;;16.58;7.20;;;13.80;99.90;;;;;;5071663;28;20390;-74
2023/10/06 03:17:51;;;;;;;19.63;7.53;;;13.80;99.90;;;;;;5075379;28;20052;-74
2023/10/06 03:20:22;;;;;;;17.60;7.10;;;13.80;99.90;;;;;;5075372;28;20044;-74
2023/10/06 03:22:52;;;;;;;16.98;7.35;;;13.70;99.90;;;;;;5075406;28;20045;-74
2023/10/06 03:25:18;;;;;;;21.48;7.68;;;13.70;99.90;;;;;;5075167;28;20044;-74
2023/10/06 03:27:53;;;;;;;13.82;7.03;;;13.60;99.90;;;;;;5075264;28;20033;-74
2023/10/06 03:30:26;;;;;;;16.75;8.30;;;13.70;99.90;;;;;;5075208;28;20054;-74
2023/10/06 03:32:57;;;;;;;18.25;8.07;;;13.60;99.90;;;;;;5058810;28;20079;-75
2023/10/06 03:35:36;;;;;;;15.10;7.82;;;13.60;99.90;;;;;;5075058;28;20040;-75
2023/10/06 03:38:13;;;;;;;13.65;7.18;;;13.60;99.90;;;;;;5075095;28;20508;-75
2023/10/06 03:41:07;;;;;;;16.27;7.65;;;13.60;99.90;;;;;;5075057;28;20036;-75
2023/10/06 03:43:50;;;;;;;17.17;7.78;;;13.60;99.90;;;;;;5075041;28;20040;-75
2023/10/06 03:46:18;;;;;;;15.27;7.70;;;13.60;99.90;;;;;;5074914;28;20037;-74
2023/10/06 03:48:46;;;;;;;17.10;7.80;;;13.60;99.90;;;;;;5074875;28;20075;-74
2023/10/06 03:51:11;;;;;;;17.10;8.00;;;13.60;99.90;;;;;;5074823;28;20097;-74
2023/10/06 03:53:37;;;;;;;16.50;7.03;;;13.60;99.90;;;;;;5074837;28;20032;-74
2023/10/06 03:56:02;;;;;;;16.77;7.70;;;13.60;99.90;;;;;;5074913;28;20048;-74
2023/10/06 03:58:28;;;;;;;11.65;7.07;;;13.50;99.90;;;;;;5074703;28;20083;-74
2023/10/06 04:00:54;;;;;;;16.08;7.30;;;13.60;99.90;;;;;;5074648;28;20040;-74
2023/10/06 04:03:21;;;;;;;16.85;7.57;;;13.50;99.90;;;;;;5074894;28;20044;-74
2023/10/06 04:05:51;;;;;;;18.02;7.18;;;13.50;99.90;;;;;;5074443;28;20525;-74
2023/10/06 04:08:20;;;;;;;13.75;6.95;;;13.60;99.90;;;;;;5074772;28;20109;-75
2023/10/06 04:10:53;;;;;;;13.23;6.90;;;13.60;99.90;;;;;;5074478;28;20044;-75
2023/10/06 04:13:20;;;;;;;18.88;7.35;;;13.60;99.90;;;;;;5074795;28;20087;-75
2023/10/06 04:15:49;;;;;;;17.20;6.68;;;13.60;99.90;;;;;;5074329;28;20044;-74
2023/10/06 04:18:23;;;;;;;12.07;6.55;;;13.60;99.90;;;;;;5074506;28;20040;-74
2023/10/06 04:20:53;;;;;;;12.48;6.55;;;13.60;99.90;;;;;;5074403;28;20039;-75
2023/10/06 04:23:22;;;;;;;16.55;6.95;;;13.60;99.90;;;;;;5057641;28;20125;-75
2023/10/06 04:25:50;;;;;;;18.20;6.95;;;13.60;99.90;;;;;;5074115;28;20041;-74
2023/10/06 04:28:16;;;;;;;16.13;6.65;;;13.60;99.90;;;;;;5072972;28;20446;-75
2023/10/06 04:30:44;;;;;;;18.05;6.63;;;13.60;99.90;;;;;;5074134;28;20489;-75
2023/10/06 04:33:11;;;;;;;12.98;6.28;;;13.60;99.90;;;;;;5074128;28;20045;-75
2023/10/06 04:35:43;;;;;;;15.98;6.70;;;13.60;99.90;;;;;;5073983;28;20047;-74
2023/10/06 04:38:12;;;;;;;14.13;6.88;;;13.60;99.90;;;;;;5074014;28;20040;-74
2023/10/06 04:40:41;;;;;;;15.63;6.80;;;13.60;99.90;;;;;;5073983;28;20040;-74
2023/10/06 04:43:07;;;;;;;15.90;6.57;;;13.60;99.90;;;;;;5057227;28;20081;-74
2023/10/06 04:45:33;;;;;;;16.38;6.63;;;13.60;99.90;;;;;;5073681;28;20501;-74
2023/10/06 04:48:02;;;;;;;12.45;5.70;;;13.60;99.90;;;;;;5057072;28;20068;-74
2023/10/06 04:50:29;;;;;;;16.52;6.63;;;13.50;99.90;;;;;;5073983;28;20029;-74
2023/10/06 04:52:56;;;;;;;16.58;5.82;;;13.50;99.90;;;;;;5073735;28;20087;-74
2023/10/06 04:55:22;;;;;;;17.35;6.43;;;13.50;99.90;;;;;;5073795;28;20047;-74
2023/10/06 04:57:48;;;;;;;12.52;5.72;;;13.50;99.90;;;;;;5073634;28;20040;-74
2023/10/06 05:00:27;;;;;;;12.52;5.82;;;13.60;99.90;;;;;;5056936;28;20040;-74
2023/10/06 05:02:53;;;;;;;14.25;6.35;;;13.50;99.90;;;;;;5057147;28;20087;-74
2023/10/06 05:05:21;;;;;;;21.40;7.13;;;13.50;99.90;;;;;;5073343;28;20040;-74
2023/10/06 05:07:51;;;;;;;17.80;6.70;;;13.50;99.90;;;;;;5056741;28;20037;-74
2023/10/06 05:10:25;;;;;;;13.15;5.28;;;13.50;99.90;;;;;;5073643;28;20098;-75
2023/10/06 05:12:52;;;;;;;13.40;6.40;;;13.60;99.90;;;;;;5073383;28;20037;-75
2023/10/06 05:15:26;;;;;;;12.10;6.22;;;13.50;99.90;;;;;;5073228;28;20037;-75
2023/10/06 05:17:58;;;;;;;18.15;6.70;;;13.60;99.90;;;;;;5056510;28;20036;-75
2023/10/06 05:20:29;;;;;;;17.15;5.90;;;13.60;99.90;;;;;;5056468;28;20032;-74
2023/10/06 05:23:14;;;;;;;11.50;5.85;;;13.60;99.90;;;;;;5073155;28;20047;-74
2023/10/06 05:25:41;;;;;;;19.13;6.35;;;13.60;99.90;;;;;;5072999;28;20098;-74
2023/10/06 05:28:16;;;;;;;13.38;5.40;;;13.60;99.90;;;;;;5056657;28;20040;-75
2023/10/06 05:30:43;;;;;;;15.10;6.20;;;13.60;99.90;;;;;;5056620;28;20127;-75
2023/10/06 05:33:09;;;;;;;15.13;6.70;;;13.60;99.90;;;;;;5073169;28;20090;-75
2023/10/06 05:35:38;;;;;;;14.07;6.28;;;13.60;99.90;;;;;;5056160;28;20071;-74
2023/10/06 05:38:12;;;;;;;14.02;5.70;;;13.70;99.90;;;;;;5055889;28;20075;-73
2023/10/06 05:40:40;;;;;;;16.50;6.82;;;13.60;99.90;;;;;;5072891;28;20047;-74
2023/10/06 05:43:05;;;;;;;19.10;6.63;;;13.70;99.90;;;;;;5072737;28;20044;-74
2023/10/06 05:45:35;;;;;;;10.98;6.18;;;13.70;99.90;;;;;;5072653;28;20044;-74
2023/10/06 05:48:06;;;;;;;20.08;7.22;;;13.70;99.90;;;;;;5072643;28;20412;-74
2023/10/06 05:50:35;;;;;;;15.45;6.47;;;13.70;99.90;;;;;;5072635;28;20112;-74
2023/10/06 05:53:02;;;;;;;19.25;6.82;;;13.80;99.90;;;;;;5072591;28;20050;-74
2023/10/06 05:55:31;;;;;;;13.20;6.25;;;13.80;99.90;;;;;;5072672;28;20487;-73
2023/10/06 05:58:00;;;;;;;14.70;6.15;;;13.80;99.90;;;;;;5072493;28;20041;-74
2023/10/06 06:00:27;;;;;;;13.90;6.85;;;13.80;99.90;;;;;;5072377;28;20066;-74
2023/10/06 06:02:53;;;;;;;15.77;6.45;;;13.80;99.90;;;;;;5072344;28;20054;-74
2023/10/06 06:05:20;;;;;;;11.50;5.55;;;13.80;99.90;;;;;;5072366;28;20086;-74
2023/10/06 06:07:46;;;;;;;15.05;6.22;;;13.80;99.90;;;;;;5072554;28;20047;-74
2023/10/06 06:10:13;;;;;;;15.05;6.72;;;13.80;99.90;;;;;;5072497;28;20401;-74
2023/10/06 06:12:42;;;;;;;15.52;6.55;;;13.90;99.90;;;;;;5072255;28;20047;-73
2023/10/06 06:15:08;;;;;;;13.27;6.18;;;13.80;99.90;;;;;;5072361;28;20052;-73
2023/10/06 06:17:36;;;;;;;14.43;6.45;;;13.90;99.90;;;;;;5071939;28;20050;-72
2023/10/06 06:20:02;;;;;;;15.77;7.57;;;13.90;99.90;;;;;;5072098;28;20089;-72
2023/10/06 06:22:29;;;;;;;13.00;6.50;;;13.90;99.90;;;;;;5072112;28;20056;-72
2023/10/06 06:24:55;;;;;;;15.43;6.78;;;13.90;99.90;;;;;;5072107;28;20076;-73
2023/10/06 06:27:22;;;;;;;15.85;6.38;;;14.00;99.90;;;;;;5072031;28;20040;-74
2023/10/06 06:29:49;;;;;;;17.13;7.05;;;14.00;99.90;;;;;;5071969;28;20101;-74
2023/10/06 06:32:16;;;;;;;14.95;6.95;;;14.00;99.90;;;;;;5071962;28;20036;-74
2023/10/06 06:34:41;;;;;;;14.82;6.60;;;14.00;99.90;;;;;;5071871;28;20044;-74
2023/10/06 06:37:09;;;;;;;16.65;6.93;;;14.10;99.90;;;;;;5072313;28;20044;-74
2023/10/06 06:39:37;;;;;;;15.45;6.90;;;14.10;99.90;;;;;;5071912;28;20079;-74
2023/10/06 06:42:08;;;;;;;11.88;6.82;;;14.10;99.90;;;;;;5071829;28;20562;-74
2023/10/06 06:44:34;;;;;;;16.08;6.82;;;14.10;99.90;;;;;;5071708;28;20029;-71
2023/10/06 06:47:00;;;;;;;15.52;6.90;;;14.10;99.90;;;;;;5071733;28;20040;-72
2023/10/06 06:49:26;;;;;;;15.40;7.38;;;14.10;99.90;;;;;;5071612;28;20036;-72
2023/10/06 06:51:53;;;;;;;12.85;7.45;;;14.10;99.90;;;;;;5071254;28;20041;-72
2023/10/06 06:54:19;;;;;;;14.57;7.00;;;14.20;99.90;;;;;;5055015;28;20049;-71
2023/10/06 06:56:47;;;;;;;18.13;7.03;;;14.10;99.90;;;;;;5072017;28;20048;-72
2023/10/06 06:59:13;;;;;;;16.77;6.75;;;14.20;99.90;;;;;;5072990;28;20091;-71
2023/10/06 07:01:38;;;;;;;14.43;7.55;;;14.10;99.90;;;;;;5071733;28;20454;-71
2023/10/06 07:04:06;;;;;;;14.65;7.20;;;14.20;99.90;;;;;;5071572;28;20104;-71
2023/10/06 07:06:31;;;;;;;12.88;7.15;;;14.20;99.90;;;;;;5071839;28;20131;-72
2023/10/06 07:08:57;;;;;;;16.38;6.88;;;14.20;99.90;;;;;;5071834;28;20445;-72
2023/10/06 07:11:23;;;;;;;17.08;7.40;;;14.20;99.90;;;;;;5071923;28;20044;-71
2023/10/06 07:13:48;;;;;;;12.90;6.65;;;14.20;99.90;;;;;;5071880;28;20041;-71
2023/10/06 07:16:14;;;;;;;18.90;6.93;;;14.20;99.90;;;;;;5071332;28;20077;-71
2023/10/06 07:18:40;;;;;;;14.35;7.10;;;14.20;99.90;;;;;;5071708;28;20082;-71
2023/10/06 07:21:10;;;;;;;19.65;7.50;;;14.30;99.90;;;;;;5071923;28;20066;-71
2023/10/06 07:23:37;;;;;;;15.25;6.32;;;14.20;99.90;;;;;;5071711;28;20105;-71
2023/10/06 07:26:15;;;;;;;17.38;7.07;;;14.20;99.90;;;;;;5071417;28;20041;-72
2023/10/06 07:28:41;;;;;;;16.73;7.30;;;14.30;99.90;;;;;;5071438;28;20041;-71
2023/10/06 07:31:16;;;;;;;14.35;6.53;;;14.30;99.90;;;;;;5071660;28;20050;-72
2023/10/06 07:33:47;;;;;;;11.52;6.05;;;14.30;99.90;;;;;;5071408;28;20045;-72
2023/10/06 07:36:14;;;;;;;20.10;7.15;;;14.30;99.90;;;;;;5071645;28;20048;-71
2023/10/06 07:38:41;;;;;;;17.58;5.97;;;14.30;99.90;;;;;;5071530;28;20044;-72
2023/10/06 07:41:07;;;;;;;15.27;6.63;;;14.30;99.90;;;;;;5071367;28;20059;-71
2023/10/06 07:43:33;;;;;;;13.70;5.93;;;14.40;99.90;;;;;;5071293;28;20051;-72
2023/10/06 07:46:10;;;;;;;15.43;6.53;;;14.40;99.90;;;;;;5071079;28;20037;-71
2023/10/06 07:48:36;;;;;;;16.77;6.63;;;14.40;99.90;;;;;;5071429;28;20083;-72
2023/10/06 07:51:08;;;;;;;20.13;6.40;;;14.40;99.90;;;;;;5072509;28;20080;-72
2023/10/06 07:53:38;;;;;;;17.00;6.30;;;14.40;99.90;;;;;;5071425;28;20523;-72
2023/10/06 07:56:08;;;;;;;14.77;7.45;;;14.50;99.90;;;;;;5071325;28;20102;-71
2023/10/06 07:58:38;;;;;;;19.98;7.45;;;14.50;99.90;;;;;;5071120;28;20110;-71
2023/10/06 08:01:08;;;;;;;14.23;6.45;;;14.50;99.90;;;;;;5071297;28;20050;-71
2023/10/06 08:03:38;;;;;;;12.02;6.15;;;14.60;99.90;;;;;;5074989;28;20049;-71
2023/10/06 08:06:05;;;;;;;15.85;6.60;;;14.50;99.90;;;;;;5074515;28;20098;-71
2023/10/06 08:08:33;;;;;;;14.13;6.53;;;14.60;99.90;;;;;;5074875;28;20064;-72
2023/10/06 08:11:02;;;;;;;18.33;6.63;;;14.60;99.90;;;;;;5074611;28;20043;-72
2023/10/06 08:13:33;;;;;;;18.98;6.63;;;14.60;99.90;;;;;;5074534;28;20040;-72
2023/10/06 08:16:02;;;;;;;20.33;7.85;;;14.70;99.90;;;;;;5074340;28;20049;-71
2023/10/06 08:18:29;;;;;;;18.33;7.20;;;14.80;99.90;;;;;;5074561;28;20123;-71
2023/10/06 08:21:02;;;;;;;13.70;6.80;;;14.80;99.90;;;;;;5074366;28;20071;-72
2023/10/06 08:23:29;;;;;;;18.13;6.72;;;14.90;99.90;;;;;;5057671;28;20085;-72
2023/10/06 08:25:56;;;;;;;15.07;6.50;;;14.90;99.90;;;;;;5074097;28;20048;-71
2023/10/06 08:28:31;;;;;;;12.98;6.20;;;14.90;99.90;;;;;;5075524;28;20055;-71
2023/10/06 08:30:58;;;;;;;17.98;6.85;;;15.00;99.90;;;;;;5074197;28;20041;-71
2023/10/06 08:33:27;;;;;;;16.20;6.32;;;15.00;99.90;;;;;;5074381;28;20428;-72
2023/10/06 08:35:57;;;;;;;15.27;6.70;;;15.00;99.90;;;;;;5073979;28;20615;-72
2023/10/06 08:38:24;;;;;;;16.33;6.20;;;15.10;99.90;;;;;;5074298;28;20036;-71
2023/10/06 08:40:54;;;;;;;14.60;6.63;;;15.10;99.90;;;;;;5074007;28;20115;-72
2023/10/06 08:43:26;;;;;;;16.20;6.05;;;15.20;99.90;;;;;;5058328;28;20115;-72
2023/10/06 08:45:54;;;;;;;15.20;6.32;;;15.20;99.90;;;;;;5075131;28;20114;-71
2023/10/06 08:48:24;;;;;;;18.35;7.10;;;15.10;99.90;;;;;;5075387;28;20040;-71
2023/10/06 08:50:54;;;;;;;16.25;6.63;;;15.20;99.90;;;;;;5073868;28;20036;-71
2023/10/06 08:53:23;;;;;;;17.60;6.50;;;15.20;99.90;;;;;;5074921;28;20037;-71
2023/10/06 08:55:49;;;;;;;15.68;6.60;;;15.20;99.90;;;;;;5073684;28;20048;-71
2023/10/06 08:58:14;;;;;;;14.32;6.00;;;15.30;99.90;;;;;;5073648;28;20044;-71
2023/10/06 09:00:43;;;;;;;19.08;6.90;;;15.30;99.90;;;;;;5073905;28;20090;-71
2023/10/06 09:03:11;;;;;;;20.23;6.60;;;15.40;99.90;;;;;;5073537;28;20424;-72
2023/10/06 09:05:44;;;;;;;15.27;5.88;;;15.40;99.90;;;;;;5073367;28;20489;-71
2023/10/06 09:08:14;;;;;;;20.95;6.72;;;15.50;99.90;;;;;;5073450;28;20044;-72
2023/10/06 09:10:41;;;;;;;15.10;6.80;;;15.50;99.90;;;;;;5073424;28;20072;-71
2023/10/06 09:13:16;;;;;;;13.68;6.50;;;15.40;99.90;;;;;;5072756;28;20047;-72
2023/10/06 09:15:43;;;;;;;18.08;6.88;;;15.50;99.90;;;;;;5073482;28;20070;-71
2023/10/06 09:18:20;;;;;;;16.65;6.60;;;15.50;99.90;;;;;;5073146;28;20051;-72
2023/10/06 09:20:49;;;;;;;16.85;6.28;;;15.70;99.90;;;;;;5056809;28;20086;-72
2023/10/06 09:23:36;;;;;;;19.83;6.50;;;15.80;99.90;;;;;;5073150;28;20139;-72
2023/10/06 09:26:04;;;;;;;16.10;5.43;;;16.00;99.90;;;;;;5073068;28;20052;-71
2023/10/06 09:28:31;;;;;;;14.82;6.63;;;16.40;99.90;;;;;;5073050;28;20067;-72
2023/10/06 09:31:01;;;;;;;18.63;6.03;;;16.60;99.90;;;;;;5073005;28;20386;-71
2023/10/06 09:33:36;;;;;;;13.43;6.22;;;16.60;99.90;;;;;;5072978;28;20086;-72
2023/10/06 09:36:07;;;;;;;14.27;6.35;;;16.60;99.90;;;;;;5073091;28;20083;-72
2023/10/06 09:38:40;;;;;;;17.63;6.47;;;16.70;99.90;;;;;;5073119;28;20109;-71
2023/10/06 09:41:07;;;;;;;14.43;6.07;;;16.80;99.90;;;;;;5072815;28;20044;-72
2023/10/06 09:43:38;;;;;;;16.10;5.82;;;16.70;99.90;;;;;;5072724;28;20550;-72
2023/10/06 09:46:15;;;;;;;17.70;5.95;;;16.80;99.90;;;;;;5072621;28;20079;-72
2023/10/06 09:48:45;;;;;;;13.80;6.03;;;17.30;99.90;;;;;;5072987;28;20052;-72
2023/10/06 09:51:12;;;;;;;14.10;5.55;;;17.60;99.90;;;;;;5072603;28;20063;-72
2023/10/06 09:53:39;;;;;;;15.18;5.68;;;17.60;99.90;;;;;;5073853;28;20040;-72
2023/10/06 09:56:11;;;;;;;12.60;5.80;;;17.70;99.90;;;;;;5072435;28;20075;-72
2023/10/06 09:58:54;;;;;;;13.00;5.78;;;18.00;99.90;;;;;;5072459;28;20094;-72
2023/10/06 10:01:28;;;;;;;15.15;5.50;;;18.10;99.90;;;;;;5072493;28;20048;-72
2023/10/06 10:03:56;;;;;;;12.23;5.30;;;18.10;99.90;;;;;;5072320;28;20567;-72
2023/10/06 10:06:22;;;;;;;13.73;5.60;;;17.90;99.90;;;;;;5072350;28;20041;-72
2023/10/06 10:08:51;;;;;;;15.05;5.53;;;18.10;99.90;;;;;;5072327;28;20048;-71
2023/10/06 10:11:39;;;;;;;14.02;5.30;;;18.30;99.90;;;;;;5072259;28;20044;-72
2023/10/06 10:14:42;;;;;;;16.80;5.55;;;18.40;99.90;;;;;;5072158;28;20040;-72
2023/10/06 10:17:31;;;;;;;16.75;5.18;;;18.40;99.90;;;;;;5071985;28;20036;-72
2023/10/06 10:19:58;;;;;;;13.52;5.15;;;18.50;99.90;;;;;;5072102;28;20055;-72
2023/10/06 10:22:24;;;;;;;13.48;5.40;;;18.70;99.90;;;;;;5072060;28;20051;-72
2023/10/06 10:24:50;;;;;;;13.07;5.40;;;18.90;99.90;;;;;;5071059;28;20436;-72
2023/10/06 10:27:20;;;;;;;13.45;5.10;;;19.00;99.90;;;;;;5071850;28;20048;-72
2023/10/06 10:29:47;;;;;;;14.13;4.63;;;19.20;99.90;;;;;;5072004;28;20040;-72
2023/10/06 10:32:16;;;;;;;13.40;4.72;;;19.10;99.90;;;;;;5071945;28;20509;-72
2023/10/06 10:35:13;;;;;;;16.13;4.97;;;19.00;99.90;;;;;;5071906;28;20386;-72
2023/10/06 10:37:58;;;;;;;14.55;4.82;;;18.80;99.90;;;;;;5072267;28;20041;-72
2023/10/06 10:40:29;;;;;;;14.30;4.70;;;18.50;99.90;;;;;;5072206;28;20097;-72
2023/10/06 10:43:04;;;;;;;14.20;4.10;;;18.30;99.90;;;;;;5071900;28;20032;-72
2023/10/06 10:45:38;;;;;;;15.43;4.57;;;18.40;99.90;;;;;;5071755;28;20405;-72
2023/10/06 10:48:14;;;;;;;15.75;4.70;;;18.40;99.90;;;;;;5071850;28;20044;-72
2023/10/06 10:51:00;;;;;;;14.18;4.88;;;18.30;99.90;;;;;;5072136;28;20182;-72
2023/10/06 10:53:35;;;;;;;12.65;4.80;;;18.20;99.90;;;;;;5071998;28;20378;-72
2023/10/06 10:56:01;;;;;;;13.85;4.38;;;18.20;99.90;;;;;;5071697;28;20447;-72
2023/10/06 10:58:45;;;;;;;12.05;4.68;;;18.10;99.90;;;;;;5071678;28;20115;-72
2023/10/06 11:01:24;;;;;;;10.95;4.30;;;18.10;99.90;;;;;;5071945;28;20045;-72
2023/10/06 11:04:29;;;;;;;14.10;4.25;;;18.20;99.90;;;;;;5071912;28;20040;-72
2023/10/06 11:06:56;;;;;;;13.05;4.05;;;18.20;99.90;;;;;;5071635;28;20033;-72
2023/10/06 11:09:36;;;;;;;12.35;3.88;;;18.20;99.90;;;;;;5055168;28;20148;-72
2023/10/06 11:12:09;;;;;;;11.02;4.18;;;18.20;99.90;;;;;;5071746;28;20119;-72
2023/10/06 11:14:40;;;;;;;11.65;4.13;;;18.30;99.90;;;;;;5071578;28;20040;-72
2023/10/06 11:17:07;;;;;;;15.18;4.18;;;18.20;99.90;;;;;;5055024;28;20037;-71
2023/10/06 11:19:36;;;;;;;10.70;4.57;;;18.20;99.90;;;;;;5071560;28;20109;-71
2023/10/06 11:22:22;;;;;;;12.63;4.30;;;18.10;99.90;;;;;;5072587;28;20098;-71
2023/10/06 11:24:57;;;;;;;13.43;4.32;;;18.10;99.90;;;;;;5071383;28;20048;-71
2023/10/06 11:27:24;;;;;;;15.98;4.68;;;18.10;99.90;;;;;;5071454;28;20059;-71
2023/10/06 11:29:52;;;;;;;14.57;4.65;;;18.10;99.90;;;;;;5071463;28;20079;-71
2023/10/06 11:32:18;;;;;;;15.25;4.55;;;18.10;99.90;;;;;;5071378;28;20408;-72
2023/10/06 11:34:50;;;;;;;15.57;4.75;;;18.20;99.90;;;;;;5071341;28;20404;-71
2023/10/06 11:37:18;;;;;;;12.27;4.20;;;18.20;99.90;;;;;;5073423;28;20576;-72
2023/10/06 11:39:45;;;;;;;11.63;4.05;;;18.20;99.90;;;;;;5075176;28;20496;-71
2023/10/06 11:42:41;;;;;;;12.13;3.75;;;18.30;99.90;;;;;;5075139;28;20581;-71
2023/10/06 11:45:23;;;;;;;11.95;4.30;;;18.40;99.90;;;;;;5075166;28;20033;-72
2023/10/06 11:47:51;;;;;;;12.35;4.40;;;18.80;99.90;;;;;;5075064;28;20044;-71
2023/10/06 11:50:22;;;;;;;15.52;4.93;;;19.00;99.90;;;;;;5074928;28;20558;-71
2023/10/06 11:52:49;;;;;;;13.57;4.43;;;19.40;99.90;;;;;;5074905;28;20067;-71
2023/10/06 11:55:26;;;;;;;15.73;4.78;;;19.70;99.90;;;;;;5074821;28;20052;-71
2023/10/06 11:57:52;;;;;;;13.35;4.72;;;20.10;99.90;;;;;;5075158;28;20048;-71
2023/10/06 12:00:38;;;;;;;13.57;4.20;;;20.20;99.90;;;;;;5074757;28;20048;-71
2023/10/06 12:03:03;;;;;;;12.05;4.50;;;20.20;99.90;;;;;;5076328;28;20123;-71
2023/10/06 12:05:30;;;;;;;12.35;4.53;;;20.30;99.90;;;;;;5075949;28;20124;-71
2023/10/06 12:08:08;;;;;;;15.05;4.30;;;20.50;99.90;;;;;;5074937;28;20052;-71
2023/10/06 12:10:53;;;;;;;10.88;3.92;;;20.80;99.90;;;;;;5074610;28;20124;-71
2023/10/06 12:13:19;;;;;;;14.18;4.32;;;20.70;99.90;;;;;;5074587;28;20078;-72
2023/10/06 12:15:46;;;;;;;12.30;4.00;;;20.70;99.90;;;;;;5074435;28;20040;-71
2023/10/06 12:18:13;;;;;;;16.77;4.40;;;20.90;99.90;;;;;;5074333;28;20504;-71
2023/10/06 12:20:40;;;;;;;10.70;4.07;;;20.90;99.90;;;;;;5074608;28;20087;-71
2023/10/06 12:23:06;;;;;;;14.43;4.18;;;20.80;99.90;;;;;;5076206;28;20040;-72
2023/10/06 12:25:32;;;;;;;18.63;4.28;;;20.80;99.90;;;;;;5074895;28;20036;-71
2023/10/06 12:27:59;;;;;;;16.75;5.07;;;20.60;99.90;;;;;;5074346;28;20178;-71
2023/10/06 12:30:26;;;;;;;14.90;5.10;;;20.60;99.90;;;;;;5074260;28;20040;-71
2023/10/06 12:32:54;;;;;;;14.80;4.10;;;20.50;99.90;;;;;;5074236;28;20047;-71
2023/10/06 12:35:28;;;;;;;17.08;4.82;;;20.40;99.90;;;;;;5074071;28;20049;-71
2023/10/06 12:37:54;;;;;;;12.73;4.43;;;20.20;99.90;;;;;;5075471;28;20064;-71
2023/10/06 12:40:20;;;;;;;14.02;4.43;;;20.20;99.90;;;;;;5074063;28;20558;-71
2023/10/06 12:42:46;;;;;;;12.77;4.72;;;20.20;99.90;;;;;;5073985;28;20049;-71
2023/10/06 12:45:17;;;;;;;12.38;4.10;;;20.30;99.90;;;;;;5073818;28;20041;-71
2023/10/06 12:47:45;;;;;;;13.73;4.40;;;20.50;99.90;;;;;;5073495;28;20044;-71
2023/10/06 12:50:18;;;;;;;11.50;3.63;;;20.60;99.90;;;;;;5073510;28;20040;-71
2023/10/06 12:52:51;;;;;;;14.40;4.00;;;20.70;99.90;;;;;;5075118;28;20037;-71
2023/10/06 12:55:24;;;;;;;16.27;4.05;;;20.70;99.90;;;;;;5073920;28;20154;-76
2023/10/06 12:57:51;;;;;;;11.55;3.75;;;20.80;99.90;;;;;;5073784;28;20037;-72
2023/10/06 13:00:19;;;;;;;12.50;3.72;;;20.80;99.90;;;;;;5073623;28;20079;-72